sensor_id;sensor_type;location;lat;lon;timestamp;pressure;altitude;pressure_sealevel;temperature;humidity
53940;BME280;39850;43.324;21.916;2023-05-12T00:27:02;993.0;;;9.8;92.0
53940;BME280;39850;43.324;21.916;2023-05-12T00:31:39;993.0;;;9.8;92.0
53940;BME280;39850;43.324;21.916;2023-05-12T00:36:15;993.0;;;9.8;93.0
53940;BME280;39850;43.324;21.916;2023-05-12T00:40:52;993.0;;;9.8;93.0
53940;BME280;39850;43.324;21.916;2023-05-12T00:45:30;993.0;;;9.8;93.0
53940;BME280;39850;43.324;21.916;2023-05-12T00:50:10;993.0;;;9.8;93.0
53940;BME280;39850;43.324;21.916;2023-05-12T00:54:49;993.0;;;9.9;94.0
53940;BME280;39850;43.324;21.916;2023-05-12T00:59:26;993.0;;;9.9;94.0
53940;BME280;39850;43.324;21.916;2023-05-12T01:04:04;993.0;;;10.0;94.0
53940;BME280;39850;43.324;21.916;2023-05-12T01:08:44;993.0;;;10.0;94.0
53940;BME280;39850;43.324;21.916;2023-05-12T01:13:21;993.0;;;10.0;94.0
53940;BME280;39850;43.324;21.916;2023-05-12T01:45:58;993.0;;;8.9;94.0
53940;BME280;39850;43.324;21.916;2023-05-12T01:50:34;993.0;;;8.9;94.0
53940;BME280;39850;43.324;21.916;2023-05-12T01:55:11;993.0;;;8.9;93.0
53940;BME280;39850;43.324;21.916;2023-05-12T01:59:48;993.0;;;8.9;93.0
53940;BME280;39850;43.324;21.916;2023-05-12T02:04:25;993.0;;;8.9;93.0
53940;BME280;39850;43.324;21.916;2023-05-12T02:09:03;993.0;;;8.9;93.0
53940;BME280;39850;43.324;21.916;2023-05-12T02:13:39;993.0;;;8.9;93.0
53940;BME280;39850;43.324;21.916;2023-05-12T02:18:16;993.0;;;9.0;93.0
53940;BME280;39850;43.324;21.916;2023-05-12T02:22:53;993.0;;;9.0;93.0
53940;BME280;39850;43.324;21.916;2023-05-12T02:27:30;993.0;;;9.1;93.0
53940;BME280;39850;43.324;21.916;2023-05-12T02:32:07;993.0;;;9.1;93.0
53940;BME280;39850;43.324;21.916;2023-05-12T03:04:21;993.0;;;8.9;88.0
53940;BME280;39850;43.324;21.916;2023-05-12T03:08:58;993.0;;;8.9;88.0
53940;BME280;39850;43.324;21.916;2023-05-12T03:13:35;993.0;;;8.9;88.0
53940;BME280;39850;43.324;21.916;2023-05-12T03:18:11;993.0;;;9.0;88.0
53940;BME280;39850;43.324;21.916;2023-05-12T03:22:48;993.0;;;9.0;88.0
53940;BME280;39850;43.324;21.916;2023-05-12T03:27:25;993.0;;;9.0;88.0
53940;BME280;39850;43.324;21.916;2023-05-12T03:32:01;993.0;;;9.0;88.0
53940;BME280;39850;43.324;21.916;2023-05-12T03:36:38;993.0;;;9.0;88.0
53940;BME280;39850;43.324;21.916;2023-05-12T03:41:16;993.0;;;9.0;88.0
53940;BME280;39850;43.324;21.916;2023-05-12T03:45:53;993.0;;;9.1;88.0
53940;BME280;39850;43.324;21.916;2023-05-12T03:50:30;993.0;;;9.1;88.0
53940;BME280;39850;43.324;21.916;2023-05-12T04:27:24;993.0;;;8.0;90.0
53940;BME280;39850;43.324;21.916;2023-05-12T04:32:00;993.0;;;8.0;90.0
53940;BME280;39850;43.324;21.916;2023-05-12T04:36:37;993.0;;;8.0;89.0
53940;BME280;39850;43.324;21.916;2023-05-12T04:41:14;993.0;;;8.0;89.0
53940;BME280;39850;43.324;21.916;2023-05-12T04:45:51;993.0;;;8.0;89.0
53940;BME280;39850;43.324;21.916;2023-05-12T04:50:28;993.0;;;8.0;89.0
53940;BME280;39850;43.324;21.916;2023-05-12T04:55:08;994.0;;;8.0;89.0
53940;BME280;39850;43.324;21.916;2023-05-12T04:59:45;994.0;;;8.0;89.0
53940;BME280;39850;43.324;21.916;2023-05-12T05:04:22;994.0;;;8.0;89.0
53940;BME280;39850;43.324;21.916;2023-05-12T05:08:59;994.0;;;8.0;88.0
53940;BME280;39850;43.324;21.916;2023-05-12T05:13:35;994.0;;;8.0;88.0
53940;BME280;39850;43.324;21.916;2023-05-12T05:45:51;994.0;;;8.0;87.0
53940;BME280;39850;43.324;21.916;2023-05-12T05:50:28;994.0;;;8.0;87.0
53940;BME280;39850;43.324;21.916;2023-05-12T05:55:07;994.0;;;8.0;88.0
53940;BME280;39850;43.324;21.916;2023-05-12T05:59:44;994.0;;;8.0;88.0
53940;BME280;39850;43.324;21.916;2023-05-12T06:04:20;994.0;;;8.0;88.0
53940;BME280;39850;43.324;21.916;2023-05-12T06:08:57;994.0;;;8.0;87.0
53940;BME280;39850;43.324;21.916;2023-05-12T06:13:34;994.0;;;8.0;87.0
53940;BME280;39850;43.324;21.916;2023-05-12T06:18:10;994.0;;;8.1;88.0
53940;BME280;39850;43.324;21.916;2023-05-12T06:22:47;994.0;;;8.1;88.0
53940;BME280;39850;43.324;21.916;2023-05-12T06:27:25;994.0;;;8.2;87.0
53940;BME280;39850;43.324;21.916;2023-05-12T06:32:01;994.0;;;8.2;87.0
53940;BME280;39850;43.324;21.916;2023-05-12T07:08:55;994.0;;;8.9;82.0
53940;BME280;39850;43.324;21.916;2023-05-12T07:13:32;994.0;;;8.9;82.0
53940;BME280;39850;43.324;21.916;2023-05-12T07:18:08;994.0;;;8.9;82.0
53940;BME280;39850;43.324;21.916;2023-05-12T07:22:45;994.0;;;8.9;82.0
53940;BME280;39850;43.324;21.916;2023-05-12T07:27:22;994.0;;;9.3;82.0
53940;BME280;39850;43.324;21.916;2023-05-12T07:31:59;994.0;;;9.3;82.0
53940;BME280;39850;43.324;21.916;2023-05-12T07:36:36;994.0;;;9.7;82.0
53940;BME280;39850;43.324;21.916;2023-05-12T07:41:13;994.0;;;9.7;82.0
53940;BME280;39850;43.324;21.916;2023-05-12T07:45:50;994.0;;;9.7;82.0
53940;BME280;39850;43.324;21.916;2023-05-12T07:50:26;994.0;;;9.7;82.0
53940;BME280;39850;43.324;21.916;2023-05-12T07:55:05;994.0;;;9.7;82.0
53940;BME280;39850;43.324;21.916;2023-05-12T08:27:20;994.0;;;11.6;72.0
53940;BME280;39850;43.324;21.916;2023-05-12T08:31:58;994.0;;;11.6;72.0
53940;BME280;39850;43.324;21.916;2023-05-12T08:36:36;994.0;;;11.8;72.0
53940;BME280;39850;43.324;21.916;2023-05-12T08:41:43;994.0;;;11.8;72.0
53940;BME280;39850;43.324;21.916;2023-05-12T08:46:31;994.0;;;12.0;71.0
53940;BME280;39850;43.324;21.916;2023-05-12T08:51:13;994.0;;;12.0;71.0
53940;BME280;39850;43.324;21.916;2023-05-12T08:55:55;994.0;;;12.2;71.0
53940;BME280;39850;43.324;21.916;2023-05-12T09:00:40;994.0;;;12.2;71.0
53940;BME280;39850;43.324;21.916;2023-05-12T09:05:18;994.0;;;12.2;71.0
53940;BME280;39850;43.324;21.916;2023-05-12T09:10:06;994.0;;;12.3;71.0
53940;BME280;39850;43.324;21.916;2023-05-12T09:15:19;994.0;;;12.3;71.0
53940;BME280;39850;43.324;21.916;2023-05-12T09:48:13;993.0;;;12.2;72.0
53940;BME280;39850;43.324;21.916;2023-05-12T09:52:50;993.0;;;12.2;72.0
53940;BME280;39850;43.324;21.916;2023-05-12T09:57:27;993.0;;;12.4;72.0
53940;BME280;39850;43.324;21.916;2023-05-12T10:02:15;993.0;;;12.4;72.0
53940;BME280;39850;43.324;21.916;2023-05-12T10:06:57;993.0;;;12.5;72.0
53940;BME280;39850;43.324;21.916;2023-05-12T10:11:39;993.0;;;12.5;72.0
53940;BME280;39850;43.324;21.916;2023-05-12T10:16:18;994.0;;;12.6;73.0
53940;BME280;39850;43.324;21.916;2023-05-12T10:21:01;994.0;;;12.6;73.0
53940;BME280;39850;43.324;21.916;2023-05-12T10:25:43;994.0;;;12.6;74.0
53940;BME280;39850;43.324;21.916;2023-05-12T10:30:23;994.0;;;12.6;74.0
53940;BME280;39850;43.324;21.916;2023-05-12T10:35:12;994.0;;;12.6;74.0
53940;BME280;39850;43.324;21.916;2023-05-12T11:17:15;993.0;;;12.1;79.0
53940;BME280;39850;43.324;21.916;2023-05-12T11:21:53;993.0;;;12.1;79.0
53940;BME280;39850;43.324;21.916;2023-05-12T11:26:33;993.0;;;12.4;78.0
53940;BME280;39850;43.324;21.916;2023-05-12T11:31:21;993.0;;;12.4;78.0
53940;BME280;39850;43.324;21.916;2023-05-12T11:36:03;993.0;;;12.4;78.0
53940;BME280;39850;43.324;21.916;2023-05-12T11:40:40;993.0;;;12.4;78.0
53940;BME280;39850;43.324;21.916;2023-05-12T11:45:27;993.0;;;12.4;78.0
53940;BME280;39850;43.324;21.916;2023-05-12T11:50:08;993.0;;;12.7;78.0
53940;BME280;39850;43.324;21.916;2023-05-12T11:54:57;993.0;;;12.7;78.0
53940;BME280;39850;43.324;21.916;2023-05-12T12:27:23;993.0;;;12.4;77.0
53940;BME280;39850;43.324;21.916;2023-05-12T12:32:00;993.0;;;12.4;77.0
53940;BME280;39850;43.324;21.916;2023-05-12T12:36:37;993.0;;;12.5;76.0
53940;BME280;39850;43.324;21.916;2023-05-12T12:41:14;993.0;;;12.5;76.0
53940;BME280;39850;43.324;21.916;2023-05-12T12:45:51;993.0;;;12.5;76.0
53940;BME280;39850;43.324;21.916;2023-05-12T12:50:28;993.0;;;12.6;77.0
53940;BME280;39850;43.324;21.916;2023-05-12T12:55:08;993.0;;;12.6;77.0
53940;BME280;39850;43.324;21.916;2023-05-12T12:59:45;993.0;;;12.6;77.0
53940;BME280;39850;43.324;21.916;2023-05-12T13:04:22;993.0;;;12.6;77.0
53940;BME280;39850;43.324;21.916;2023-05-12T13:08:58;993.0;;;12.7;77.0
53940;BME280;39850;43.324;21.916;2023-05-12T13:13:35;993.0;;;12.7;77.0
53940;BME280;39850;43.324;21.916;2023-05-12T13:59:45;992.0;;;12.7;76.0
53940;BME280;39850;43.324;21.916;2023-05-12T14:04:21;992.0;;;12.7;76.0
53940;BME280;39850;43.324;21.916;2023-05-12T14:08:58;992.0;;;12.7;76.0
53940;BME280;39850;43.324;21.916;2023-05-12T14:13:35;992.0;;;12.7;76.0
53940;BME280;39850;43.324;21.916;2023-05-12T14:18:12;992.0;;;12.7;76.0
53940;BME280;39850;43.324;21.916;2023-05-12T14:22:49;992.0;;;12.7;76.0
53940;BME280;39850;43.324;21.916;2023-05-12T14:27:25;992.0;;;12.7;76.0
53940;BME280;39850;43.324;21.916;2023-05-12T14:32:03;992.0;;;12.7;76.0
53940;BME280;39850;43.324;21.916;2023-05-12T15:09:01;992.0;;;12.7;76.0
53940;BME280;39850;43.324;21.916;2023-05-12T15:13:38;992.0;;;12.7;76.0
53940;BME280;39850;43.324;21.916;2023-05-12T15:18:15;992.0;;;12.7;77.0
53940;BME280;39850;43.324;21.916;2023-05-12T15:22:51;992.0;;;12.7;77.0
53940;BME280;39850;43.324;21.916;2023-05-12T15:27:28;992.0;;;12.7;76.0
53940;BME280;39850;43.324;21.916;2023-05-12T15:32:07;992.0;;;12.7;76.0
53940;BME280;39850;43.324;21.916;2023-05-12T15:36:44;992.0;;;12.7;76.0
53940;BME280;39850;43.324;21.916;2023-05-12T15:41:21;992.0;;;12.7;76.0
53940;BME280;39850;43.324;21.916;2023-05-12T15:45:58;992.0;;;12.7;76.0
53940;BME280;39850;43.324;21.916;2023-05-12T15:50:34;992.0;;;12.7;75.0
53940;BME280;39850;43.324;21.916;2023-05-12T15:55:10;992.0;;;12.7;75.0
53940;BME280;39850;43.324;21.916;2023-05-12T16:27:25;993.0;;;10.7;87.0
53940;BME280;39850;43.324;21.916;2023-05-12T16:32:01;993.0;;;10.7;87.0
53940;BME280;39850;43.324;21.916;2023-05-12T16:36:37;993.0;;;10.7;87.0
53940;BME280;39850;43.324;21.916;2023-05-12T16:41:14;993.0;;;10.7;87.0
53940;BME280;39850;43.324;21.916;2023-05-12T16:46:01;993.0;;;10.7;87.0
53940;BME280;39850;43.324;21.916;2023-05-12T16:50:38;993.0;;;10.7;87.0
53940;BME280;39850;43.324;21.916;2023-05-12T16:55:14;993.0;;;10.7;87.0
53940;BME280;39850;43.324;21.916;2023-05-12T16:59:50;993.0;;;10.7;87.0
53940;BME280;39850;43.324;21.916;2023-05-12T17:04:27;993.0;;;10.7;87.0
53940;BME280;39850;43.324;21.916;2023-05-12T17:09:03;993.0;;;10.7;87.0
53940;BME280;39850;43.324;21.916;2023-05-12T17:13:39;993.0;;;10.7;87.0
53940;BME280;39850;43.324;21.916;2023-05-12T17:50:33;994.0;;;9.8;93.0
53940;BME280;39850;43.324;21.916;2023-05-12T17:55:10;994.0;;;9.8;93.0
53940;BME280;39850;43.324;21.916;2023-05-12T17:59:47;994.0;;;10.0;92.0
53940;BME280;39850;43.324;21.916;2023-05-12T18:04:24;994.0;;;10.0;92.0
53940;BME280;39850;43.324;21.916;2023-05-12T18:09:01;994.0;;;10.0;92.0
53940;BME280;39850;43.324;21.916;2023-05-12T18:13:38;994.0;;;10.0;92.0
53940;BME280;39850;43.324;21.916;2023-05-12T18:18:15;994.0;;;10.2;92.0
53940;BME280;39850;43.324;21.916;2023-05-12T18:22:52;994.0;;;10.2;92.0
53940;BME280;39850;43.324;21.916;2023-05-12T19:08:57;995.0;;;10.9;93.0
53940;BME280;39850;43.324;21.916;2023-05-12T19:13:34;995.0;;;10.9;93.0
53940;BME280;39850;43.324;21.916;2023-05-12T19:18:10;995.0;;;10.9;93.0
53940;BME280;39850;43.324;21.916;2023-05-12T19:22:49;995.0;;;10.9;93.0
53940;BME280;39850;43.324;21.916;2023-05-12T19:27:26;995.0;;;10.9;93.0
53940;BME280;39850;43.324;21.916;2023-05-12T19:32:06;995.0;;;11.2;91.0
53940;BME280;39850;43.324;21.916;2023-05-12T19:36:43;995.0;;;11.2;91.0
53940;BME280;39850;43.324;21.916;2023-05-12T19:41:20;995.0;;;11.5;90.0
53940;BME280;39850;43.324;21.916;2023-05-12T19:45:57;995.0;;;11.5;90.0
53940;BME280;39850;43.324;21.916;2023-05-12T19:50:34;995.0;;;11.5;90.0
53940;BME280;39850;43.324;21.916;2023-05-12T19:55:10;995.0;;;11.5;90.0
53940;BME280;39850;43.324;21.916;2023-05-12T20:32:01;995.0;;;11.8;88.0
53940;BME280;39850;43.324;21.916;2023-05-12T20:36:38;995.0;;;11.8;88.0
53940;BME280;39850;43.324;21.916;2023-05-12T20:41:15;995.0;;;11.8;88.0
53940;BME280;39850;43.324;21.916;2023-05-12T20:45:52;995.0;;;11.8;88.0
53940;BME280;39850;43.324;21.916;2023-05-12T20:50:28;995.0;;;11.8;88.0
53940;BME280;39850;43.324;21.916;2023-05-12T20:55:09;995.0;;;11.8;88.0
53940;BME280;39850;43.324;21.916;2023-05-12T20:59:46;995.0;;;11.8;88.0
53940;BME280;39850;43.324;21.916;2023-05-12T21:04:22;995.0;;;11.8;88.0
53940;BME280;39850;43.324;21.916;2023-05-12T21:50:26;995.0;;;10.9;90.0
53940;BME280;39850;43.324;21.916;2023-05-12T21:55:05;995.0;;;10.9;90.0
53940;BME280;39850;43.324;21.916;2023-05-12T21:59:42;995.0;;;10.9;89.0
53940;BME280;39850;43.324;21.916;2023-05-12T22:04:18;995.0;;;10.9;89.0
53940;BME280;39850;43.324;21.916;2023-05-12T22:08:55;995.0;;;10.9;89.0
53940;BME280;39850;43.324;21.916;2023-05-12T22:13:32;995.0;;;10.9;89.0
53940;BME280;39850;43.324;21.916;2023-05-12T22:18:09;995.0;;;10.9;88.0
53940;BME280;39850;43.324;21.916;2023-05-12T22:22:45;995.0;;;10.9;88.0
53940;BME280;39850;43.324;21.916;2023-05-12T22:27:22;995.0;;;10.9;88.0
53940;BME280;39850;43.324;21.916;2023-05-12T22:31:59;995.0;;;10.8;87.0
53940;BME280;39850;43.324;21.916;2023-05-12T22:36:36;995.0;;;10.8;87.0
53940;BME280;39850;43.324;21.916;2023-05-12T23:08:54;995.0;;;10.7;86.0
53940;BME280;39850;43.324;21.916;2023-05-12T23:13:31;995.0;;;10.7;86.0
53940;BME280;39850;43.324;21.916;2023-05-12T23:18:08;995.0;;;10.7;86.0
53940;BME280;39850;43.324;21.916;2023-05-12T23:22:44;995.0;;;10.8;86.0
53940;BME280;39850;43.324;21.916;2023-05-12T23:27:21;995.0;;;10.8;86.0
53940;BME280;39850;43.324;21.916;2023-05-12T23:31:57;995.0;;;10.7;86.0
53940;BME280;39850;43.324;21.916;2023-05-12T23:36:34;995.0;;;10.7;86.0
53940;BME280;39850;43.324;21.916;2023-05-12T23:41:11;995.0;;;10.8;86.0
53940;BME280;39850;43.324;21.916;2023-05-12T23:45:48;995.0;;;10.8;86.0
53940;BME280;39850;43.324;21.916;2023-05-12T23:50:26;995.0;;;10.7;86.0
53940;BME280;39850;43.324;21.916;2023-05-12T23:55:04;995.0;;;10.7;86.0
